パリ/シャルル・ド・ゴール の空港の天気 - METARとTAF

シャルル・ド・ゴール国際空港(パリ) ( LFPG / CDG ) - フランス Paris
飛行場実況気象(Metar)
観測時間11/20 10:00 CET (11/20 09:00 UTC)
風向・風速南南西 5m/s
視程3000m
天気現象弱い霧雨 もや
少しの雲 雲底高度 120m
全天の8割程度の雲 雲底高度 150m
全天の8割程度の雲 雲底高度 790m
気温6℃
湿度93%
気圧1022hPa
METARLFPG 200900Z 21009KT 180V250 3000 -DZ BR FEW004 BKN005 BKN026 06/05 Q1022 NOSIG
過去の天気等 Google飛行場航空写真 Wunderground天気予報

過去48時間のMETAR

飛行場予報(TAF)
発表時間: 11/20 06:00 CET (11/20 05:00 UTC)
予報対象時間: 20日7時 CET ~ 21日13時 CET
風向・風速南南西 3m/s
視程10km以上
全天の8割程度の雲 雲底高度 760m
20日7時 CET ~ 20日12時 CET に一時的に
全天の8割程度の雲 雲底高度 180m
20日9時 CET ~ 20日11時 CET に 確率 30% で一時的に
視程4,000m
天気現象弱い霧雨雨 もや
20日23時 CET ~ 21日1時 CET に徐々に
全天の8割程度の雲 雲底高度 300m
21日5時 CET ~ 21日7時 CET に徐々に
全天の8割程度の雲 雲底高度 150m
21日11時 CET ~ 21日13時 CET に徐々に
全天の8割程度の雲 雲底高度 240m
TAF LFPG 200500Z 2006/2112 20005KT 9999 BKN025
TEMPO 2006/2011 BKN006
PROB30 TEMPO 2008/2010 4000 -DZRA BR
BECMG 2022/2024 BKN010
BECMG 2104/2106 BKN005
BECMG 2110/2112 BKN008 TX11/2015Z TN04/2006Z